createdAt,value
2023-05-09T00:01:05.706Z,14.40
2023-05-09T00:03:33.291Z,14.40
2023-05-09T00:06:00.835Z,14.40
2023-05-09T00:08:43.175Z,14.40
2023-05-09T00:11:11.481Z,14.60
2023-05-09T00:13:39.014Z,14.60
2023-05-09T00:16:07.422Z,14.50
2023-05-09T00:18:34.930Z,14.50
2023-05-09T00:21:02.454Z,14.50
2023-05-09T00:23:30.021Z,14.40
2023-05-09T00:25:57.569Z,14.40
2023-05-09T00:28:25.088Z,14.40
2023-05-09T00:30:53.471Z,14.30
2023-05-09T00:33:21.791Z,14.30
2023-05-09T00:35:49.340Z,14.30
2023-05-09T00:38:16.946Z,14.30
2023-05-09T00:40:44.434Z,14.20
2023-05-09T00:43:11.984Z,14.20
2023-05-09T00:45:40.324Z,14.10
2023-05-09T00:48:07.899Z,14.10
2023-05-09T00:50:35.382Z,14.10
2023-05-09T00:53:03.006Z,14.10
2023-05-09T00:55:30.490Z,14.00
2023-05-09T00:57:58.794Z,14.00
2023-05-09T01:00:26.360Z,13.90
2023-05-09T01:02:54.093Z,13.90
2023-05-09T01:05:21.488Z,13.90
2023-05-09T01:08:01.666Z,13.90
2023-05-09T01:10:44.540Z,13.80
2023-05-09T01:13:17.921Z,13.80
2023-05-09T01:15:54.672Z,14.00
2023-05-09T01:18:30.800Z,14.00
2023-05-09T01:20:58.344Z,13.90
2023-05-09T01:23:46.929Z,13.90
2023-05-09T01:26:26.347Z,13.80
2023-05-09T01:29:14.830Z,13.80
2023-05-09T01:31:42.390Z,13.80
2023-05-09T01:34:09.923Z,13.70
2023-05-09T01:36:38.012Z,13.70
2023-05-09T01:39:05.682Z,13.90
2023-05-09T01:41:33.101Z,13.90
2023-05-09T01:44:00.928Z,13.80
2023-05-09T01:46:28.379Z,14.00
2023-05-09T01:48:55.888Z,14.00
2023-05-09T01:51:23.465Z,14.10
2023-05-09T01:53:51.038Z,14.30
2023-05-09T01:56:18.562Z,14.20
2023-05-09T01:58:46.425Z,14.10
2023-05-09T02:01:13.987Z,14.00
2023-05-09T02:03:42.262Z,13.90
2023-05-09T02:06:09.847Z,13.80
2023-05-09T02:08:37.396Z,13.80
2023-05-09T02:11:04.961Z,13.80
2023-05-09T02:13:33.086Z,14.00
2023-05-09T02:16:00.630Z,14.00
2023-05-09T02:18:28.922Z,13.90
2023-05-09T02:20:56.552Z,13.90
2023-05-09T02:23:24.046Z,13.80
2023-05-09T02:25:51.580Z,13.80
2023-05-09T02:28:19.220Z,13.80
2023-05-09T02:30:46.787Z,13.80
2023-05-09T02:33:14.312Z,13.80
2023-05-09T02:35:42.899Z,13.80
2023-05-09T02:38:10.269Z,14.00
2023-05-09T02:40:37.849Z,14.00
2023-05-09T02:43:06.190Z,13.90
2023-05-09T02:45:33.770Z,13.90
2023-05-09T02:48:01.355Z,13.90
2023-05-09T02:50:28.875Z,13.80
2023-05-09T02:52:56.449Z,13.80
2023-05-09T02:55:23.974Z,13.80
2023-05-09T02:57:58.973Z,14.00
2023-05-09T03:00:19.593Z,14.20
2023-05-09T03:02:47.243Z,14.10
2023-05-09T03:05:14.900Z,14.00
2023-05-09T03:07:42.249Z,14.00
2023-05-09T03:10:09.891Z,13.90
2023-05-09T03:12:38.304Z,13.80
2023-05-09T03:15:09.054Z,13.80
2023-05-09T03:17:36.653Z,13.80
2023-05-09T03:20:04.491Z,13.70
2023-05-09T03:22:31.721Z,13.70
2023-05-09T03:24:59.273Z,13.70
2023-05-09T03:27:26.948Z,13.70
2023-05-09T03:29:54.480Z,13.70
2023-05-09T03:32:22.027Z,13.70
2023-05-09T03:34:49.850Z,13.60
2023-05-09T03:37:17.404Z,13.70
2023-05-09T03:39:44.928Z,13.70
2023-05-09T03:42:13.111Z,13.60
2023-05-09T03:44:40.658Z,13.70
2023-05-09T03:47:08.980Z,13.70
2023-05-09T03:49:36.525Z,13.70
2023-05-09T03:52:04.058Z,13.70
2023-05-09T03:54:31.604Z,13.70
2023-05-09T03:57:00.234Z,13.70
2023-05-09T03:59:27.766Z,13.80
2023-05-09T04:01:55.335Z,13.80
2023-05-09T04:04:22.927Z,13.80
2023-05-09T04:06:50.471Z,13.80
2023-05-09T04:09:18.055Z,13.80
2023-05-09T04:11:45.637Z,13.80
2023-05-09T04:14:13.967Z,14.10
2023-05-09T04:16:41.594Z,14.10
2023-05-09T04:19:09.119Z,14.10
2023-05-09T04:21:36.673Z,14.10
2023-05-09T04:24:04.232Z,14.10
2023-05-09T04:26:31.843Z,14.10
2023-05-09T04:28:59.374Z,14.30
2023-05-09T04:31:27.747Z,14.30
2023-05-09T04:33:55.268Z,14.20
2023-05-09T04:36:22.804Z,14.20
2023-05-09T04:38:50.357Z,14.20
2023-05-09T04:41:18.535Z,14.20
2023-05-09T04:43:46.060Z,14.20
2023-05-09T04:46:14.415Z,14.20
2023-05-09T04:48:41.943Z,14.20
2023-05-09T04:51:09.482Z,14.20
2023-05-09T04:53:37.011Z,14.20
2023-05-09T04:56:05.374Z,14.20
2023-05-09T04:58:32.901Z,14.20
2023-05-09T05:01:00.436Z,14.20
2023-05-09T05:03:28.018Z,14.40
2023-05-09T05:05:55.551Z,14.40
2023-05-09T05:08:23.086Z,14.40
2023-05-09T05:10:51.439Z,14.40
2023-05-09T05:13:19.004Z,14.30
2023-05-09T05:15:46.604Z,14.30
2023-05-09T05:18:14.929Z,14.30
2023-05-09T05:20:42.460Z,14.30
2023-05-09T05:23:10.000Z,14.30
2023-05-09T05:25:37.613Z,14.50
2023-05-09T05:28:05.157Z,14.50
2023-05-09T05:30:34.307Z,14.50
2023-05-09T05:33:00.590Z,14.50
2023-05-09T05:35:28.086Z,14.70
2023-05-09T05:37:55.618Z,14.70
2023-05-09T05:40:23.218Z,14.60
2023-05-09T05:42:50.756Z,14.60
2023-05-09T05:45:19.073Z,14.60
2023-05-09T05:47:48.748Z,14.60
2023-05-09T05:50:16.261Z,14.60
2023-05-09T05:52:43.806Z,14.60
2023-05-09T05:55:11.409Z,14.60
2023-05-09T05:57:38.944Z,14.60
2023-05-09T06:00:09.896Z,14.70
2023-05-09T06:02:37.909Z,14.70
2023-05-09T06:05:05.422Z,14.70
2023-05-09T06:07:32.968Z,14.80
2023-05-09T06:10:00.563Z,14.80
2023-05-09T06:12:28.873Z,14.80
2023-05-09T06:14:56.418Z,14.80
2023-05-09T06:17:24.000Z,14.90
2023-05-09T06:19:51.555Z,14.90
2023-05-09T06:22:19.099Z,14.90
2023-05-09T06:24:46.682Z,15.00
2023-05-09T06:27:14.305Z,15.10
2023-05-09T06:29:41.765Z,15.10
2023-05-09T06:32:09.337Z,15.20
2023-05-09T06:34:36.911Z,15.20
2023-05-09T06:37:04.421Z,15.30
2023-05-09T06:39:32.791Z,15.50
2023-05-09T06:42:00.298Z,15.50
2023-05-09T06:44:27.872Z,15.60
2023-05-09T06:46:55.486Z,15.60
2023-05-09T06:49:23.018Z,15.90
2023-05-09T06:51:50.611Z,15.90
2023-05-09T06:54:18.229Z,16.00
2023-05-09T06:56:45.768Z,16.30
2023-05-09T06:59:13.332Z,16.30
2023-05-09T07:01:40.942Z,16.40
2023-05-09T07:04:08.435Z,16.40
2023-05-09T07:06:35.974Z,16.50
2023-05-09T07:09:04.315Z,16.60
2023-05-09T07:11:37.604Z,16.60
2023-05-09T07:14:05.162Z,16.60
2023-05-09T07:16:34.107Z,16.70
2023-05-09T07:19:00.322Z,16.90
2023-05-09T07:21:27.839Z,17.20
2023-05-09T07:23:55.444Z,17.20
2023-05-09T07:26:22.982Z,17.20
2023-05-09T07:28:51.271Z,17.40
2023-05-09T07:31:18.881Z,17.50
2023-05-09T07:33:46.389Z,17.50
2023-05-09T07:36:13.924Z,17.50
2023-05-09T07:38:41.482Z,17.50
2023-05-09T07:41:09.772Z,17.80
2023-05-09T07:43:38.075Z,17.80
2023-05-09T07:46:05.695Z,17.80
2023-05-09T07:48:33.172Z,17.80
2023-05-09T07:51:01.466Z,17.80
2023-05-09T07:53:29.062Z,17.80
2023-05-09T07:55:56.599Z,17.90
2023-05-09T07:58:24.127Z,17.90
2023-05-09T08:00:52.477Z,17.90
2023-05-09T08:03:20.150Z,17.90
2023-05-09T08:05:47.540Z,17.90
2023-05-09T08:08:15.724Z,18.10
2023-05-09T08:10:43.276Z,18.20
2023-05-09T08:13:10.805Z,18.10
2023-05-09T08:15:38.410Z,18.10
2023-05-09T08:18:05.952Z,18.10
2023-05-09T08:20:34.515Z,18.10
2023-05-09T08:23:02.877Z,18.10
2023-05-09T08:25:30.400Z,18.00
2023-05-09T08:27:57.936Z,18.10
2023-05-09T08:30:25.512Z,18.20
2023-05-09T08:32:53.096Z,18.20
2023-05-09T08:35:20.564Z,18.20
2023-05-09T08:37:50.816Z,18.10
2023-05-09T08:40:19.105Z,18.10
2023-05-09T08:42:46.631Z,18.00
2023-05-09T08:45:15.664Z,18.10
2023-05-09T08:47:43.241Z,18.10
2023-05-09T08:50:11.510Z,18.20
2023-05-09T08:52:39.057Z,18.10
2023-05-09T08:55:06.596Z,18.20
2023-05-09T08:57:37.329Z,18.40
2023-05-09T09:00:11.752Z,18.50
2023-05-09T09:02:39.306Z,18.50
2023-05-09T09:07:35.236Z,18.60
2023-05-09T09:10:03.558Z,18.70
2023-05-09T09:12:31.082Z,18.70
2023-05-09T09:14:58.675Z,18.70
2023-05-09T09:17:26.226Z,18.90
2023-05-09T09:19:53.762Z,19.00
2023-05-09T09:22:21.362Z,19.00
2023-05-09T09:24:48.891Z,19.10
2023-05-09T09:27:16.417Z,19.10
2023-05-09T09:29:44.758Z,19.20
2023-05-09T09:32:12.360Z,19.20
2023-05-09T09:34:39.835Z,19.20
2023-05-09T09:37:08.440Z,19.10
2023-05-09T09:39:35.973Z,19.10
2023-05-09T09:42:13.118Z,19.10
2023-05-09T09:44:40.656Z,19.10
2023-05-09T09:47:08.196Z,19.10
2023-05-09T09:49:35.752Z,19.20
2023-05-09T09:52:03.275Z,19.20
2023-05-09T09:54:31.590Z,19.10
2023-05-09T09:56:59.150Z,19.10
2023-05-09T09:59:26.892Z,19.10
2023-05-09T10:02:07.152Z,18.90
2023-05-09T10:04:31.824Z,18.90
2023-05-09T10:07:00.167Z,18.50
2023-05-09T10:09:27.719Z,18.50
2023-05-09T10:11:55.265Z,18.30
2023-05-09T10:14:22.782Z,18.10
2023-05-09T10:16:51.328Z,17.80
2023-05-09T10:19:18.761Z,17.80
2023-05-09T10:21:58.303Z,17.70
2023-05-09T10:24:28.863Z,17.70
2023-05-09T10:27:05.901Z,17.70
2023-05-09T10:29:36.060Z,17.70
2023-05-09T10:32:03.589Z,17.90
2023-05-09T10:34:31.167Z,17.90
2023-05-09T10:36:58.705Z,18.10
2023-05-09T10:39:26.234Z,18.10
2023-05-09T10:41:54.568Z,18.10
2023-05-09T10:44:22.094Z,18.10
2023-05-09T10:46:49.684Z,18.10
2023-05-09T10:49:17.199Z,18.30
2023-05-09T10:51:44.735Z,18.30
2023-05-09T10:54:16.123Z,18.30
2023-05-09T10:56:43.703Z,18.30
2023-05-09T10:59:33.106Z,18.30
2023-05-09T11:02:07.270Z,18.30
2023-05-09T11:04:34.805Z,18.30
2023-05-09T11:07:02.330Z,18.30
2023-05-09T11:09:33.001Z,18.30
2023-05-09T11:12:06.242Z,18.30
2023-05-09T11:14:36.592Z,18.40
2023-05-09T11:17:13.142Z,18.50
2023-05-09T11:19:43.576Z,18.70
2023-05-09T11:22:13.817Z,18.80
2023-05-09T11:24:48.153Z,18.80
2023-05-09T11:27:15.985Z,18.80
2023-05-09T11:29:43.528Z,18.90
2023-05-09T11:32:11.143Z,18.90
2023-05-09T11:34:38.644Z,18.90
2023-05-09T11:37:15.318Z,19.20
2023-05-09T11:40:00.939Z,19.20
2023-05-09T11:42:28.475Z,19.20
2023-05-09T11:44:56.009Z,19.20
2023-05-09T11:47:23.605Z,19.20
2023-05-09T11:49:51.120Z,19.20
2023-05-09T11:52:21.577Z,19.20
2023-05-09T11:54:49.136Z,19.40
2023-05-09T11:57:19.442Z,19.40
2023-05-09T11:59:46.977Z,19.40
2023-05-09T12:02:14.595Z,19.30
2023-05-09T12:04:42.135Z,19.20
2023-05-09T12:07:09.616Z,19.20
2023-05-09T12:09:37.963Z,19.10
2023-05-09T12:12:11.345Z,19.10
2023-05-09T12:14:38.890Z,19.10
2023-05-09T12:17:09.148Z,19.20
2023-05-09T12:19:36.713Z,19.20
2023-05-09T12:22:04.215Z,19.20
2023-05-09T12:24:31.804Z,19.10
2023-05-09T12:26:59.343Z,19.30
2023-05-09T12:29:26.931Z,19.30
2023-05-09T12:31:55.435Z,19.30
2023-05-09T12:34:22.916Z,19.20
2023-05-09T12:36:53.346Z,19.20
2023-05-09T12:39:21.517Z,19.20
2023-05-09T12:42:00.546Z,19.30
2023-05-09T12:44:23.572Z,19.30
2023-05-09T12:47:00.591Z,19.20
2023-05-09T12:49:28.062Z,19.20
2023-05-09T12:51:55.576Z,19.20
2023-05-09T12:54:24.192Z,19.20
2023-05-09T12:56:54.267Z,19.20
2023-05-09T12:59:25.270Z,19.20
2023-05-09T13:01:55.578Z,19.20
2023-05-09T13:04:23.853Z,19.10
2023-05-09T13:06:51.373Z,19.10
2023-05-09T13:09:19.714Z,19.20
2023-05-09T13:11:47.252Z,19.20
2023-05-09T13:14:14.781Z,19.10
2023-05-09T13:16:43.174Z,18.90
2023-05-09T13:19:10.658Z,18.90
2023-05-09T13:21:38.196Z,18.80
2023-05-09T13:24:05.958Z,18.70
2023-05-09T13:26:33.506Z,18.60
2023-05-09T13:29:01.804Z,18.40
2023-05-09T13:31:29.389Z,18.40
2023-05-09T13:33:56.912Z,18.30
2023-05-09T13:36:24.449Z,18.30
2023-05-09T13:38:53.146Z,18.10
2023-05-09T13:41:20.806Z,18.10
2023-05-09T13:43:48.279Z,18.10
2023-05-09T13:46:15.952Z,18.00
2023-05-09T13:48:43.389Z,18.00
2023-05-09T13:51:10.957Z,17.90
2023-05-09T13:53:39.426Z,17.90
2023-05-09T13:56:09.770Z,17.90
2023-05-09T13:58:37.260Z,17.90
2023-05-09T14:01:05.233Z,18.00
2023-05-09T14:03:32.765Z,18.00
2023-05-09T14:06:00.995Z,18.00
2023-05-09T14:08:28.578Z,17.90
2023-05-09T14:10:56.147Z,17.90
2023-05-09T14:13:23.706Z,17.90
2023-05-09T14:15:52.046Z,17.90
2023-05-09T14:18:21.084Z,17.80
2023-05-09T14:20:47.065Z,17.80
2023-05-09T14:23:16.028Z,17.40
2023-05-09T14:25:43.552Z,17.40
2023-05-09T14:28:11.119Z,17.20
2023-05-09T14:30:39.422Z,16.90
2023-05-09T14:33:06.981Z,16.90
2023-05-09T14:35:34.580Z,16.70
2023-05-09T14:38:02.820Z,16.30
2023-05-09T14:40:30.364Z,16.40
2023-05-09T14:42:57.906Z,16.20
2023-05-09T14:45:25.454Z,16.30
2023-05-09T14:47:53.056Z,16.30
2023-05-09T14:50:20.535Z,16.10
2023-05-09T14:52:48.129Z,16.10
2023-05-09T14:55:15.673Z,16.00
2023-05-09T14:57:43.202Z,15.90
2023-05-09T15:00:20.492Z,15.80
2023-05-09T15:02:38.527Z,15.80
2023-05-09T15:05:06.155Z,15.70
2023-05-09T15:07:33.735Z,15.70
2023-05-09T15:10:01.254Z,15.60
2023-05-09T15:12:28.781Z,15.60
2023-05-09T15:14:56.354Z,15.80
2023-05-09T15:17:23.892Z,15.70
2023-05-09T15:19:52.210Z,15.60
2023-05-09T15:22:19.767Z,15.50
2023-05-09T15:24:47.306Z,15.50
2023-05-09T15:27:14.827Z,15.40
2023-05-09T15:29:42.410Z,15.40
2023-05-09T15:32:10.706Z,15.30
2023-05-09T15:34:38.594Z,15.30
2023-05-09T15:37:06.148Z,15.30
2023-05-09T15:39:33.695Z,15.30
2023-05-09T15:42:01.228Z,15.30
2023-05-09T15:44:29.560Z,15.50
2023-05-09T15:46:57.097Z,15.50
2023-05-09T15:49:24.625Z,15.50
2023-05-09T15:51:52.958Z,15.70
2023-05-09T15:54:20.501Z,15.60
2023-05-09T15:56:48.027Z,15.60
2023-05-09T15:59:15.622Z,15.70
2023-05-09T16:01:43.454Z,15.60
2023-05-09T16:04:10.905Z,15.50
2023-05-09T16:06:38.484Z,15.40
2023-05-09T16:09:06.010Z,15.30
2023-05-09T16:11:34.310Z,15.20
2023-05-09T16:14:02.030Z,15.10
2023-05-09T16:16:29.501Z,15.10
2023-05-09T16:18:56.988Z,15.10
2023-05-09T16:21:25.338Z,15.00
2023-05-09T16:23:52.852Z,15.00
2023-05-09T16:26:21.300Z,15.00
2023-05-09T16:28:49.032Z,15.00
2023-05-09T16:31:16.593Z,14.90
2023-05-09T16:33:44.074Z,14.90
2023-05-09T16:36:12.423Z,15.10
2023-05-09T16:38:39.981Z,15.10
2023-05-09T16:41:07.518Z,15.10
2023-05-09T16:43:35.077Z,15.00
2023-05-09T16:46:02.635Z,15.20
2023-05-09T16:48:30.137Z,15.20
2023-05-09T16:50:58.478Z,15.00
2023-05-09T16:53:27.709Z,15.00
2023-05-09T16:55:53.539Z,15.00
2023-05-09T16:58:21.131Z,14.90
2023-05-09T17:00:48.706Z,14.90
2023-05-09T17:03:16.202Z,14.90
2023-05-09T17:05:44.545Z,14.80
2023-05-09T17:08:12.083Z,14.80
2023-05-09T17:10:41.439Z,14.80
2023-05-09T17:13:08.025Z,14.80
2023-05-09T17:15:35.469Z,14.80
2023-05-09T17:18:03.092Z,14.80
2023-05-09T17:20:31.333Z,14.70
2023-05-09T17:22:58.856Z,14.70
2023-05-09T17:25:26.405Z,14.70
2023-05-09T17:27:54.739Z,14.90
2023-05-09T17:30:23.160Z,14.90
2023-05-09T17:32:49.860Z,15.10
2023-05-09T17:35:17.683Z,15.30
2023-05-09T17:37:45.225Z,15.20
2023-05-09T17:40:13.809Z,15.00
2023-05-09T17:42:41.129Z,15.00
2023-05-09T17:45:09.552Z,15.10
2023-05-09T17:47:37.165Z,15.00
2023-05-09T17:50:05.498Z,14.90
2023-05-09T17:52:33.026Z,14.90
2023-05-09T17:55:01.338Z,14.80
2023-05-09T17:57:29.489Z,14.80
2023-05-09T17:59:57.026Z,14.80
2023-05-09T18:02:25.441Z,14.70
2023-05-09T18:04:52.938Z,14.70
2023-05-09T18:07:20.484Z,14.70
2023-05-09T18:09:48.012Z,14.70
2023-05-09T18:12:15.570Z,14.60
2023-05-09T18:14:43.121Z,14.60
2023-05-09T18:17:10.648Z,14.60
2023-05-09T18:19:38.764Z,14.60
2023-05-09T18:22:06.334Z,14.60
2023-05-09T18:24:34.595Z,14.80
2023-05-09T18:27:02.168Z,14.80
2023-05-09T18:29:29.714Z,14.70
2023-05-09T18:31:57.268Z,14.90
2023-05-09T18:34:25.579Z,14.80
2023-05-09T18:36:53.107Z,14.80
2023-05-09T18:39:20.660Z,14.70
2023-05-09T18:41:48.562Z,14.70
2023-05-09T18:44:16.151Z,14.60
2023-05-09T18:46:43.690Z,14.60
2023-05-09T18:49:11.271Z,14.50
2023-05-09T18:51:38.791Z,14.50
2023-05-09T18:54:06.321Z,14.50
2023-05-09T18:56:33.915Z,14.40
2023-05-09T18:59:01.460Z,14.40
2023-05-09T19:01:29.090Z,14.40
2023-05-09T19:03:56.605Z,14.30
2023-05-09T19:06:24.116Z,14.30
2023-05-09T19:08:52.446Z,14.30
2023-05-09T19:11:20.023Z,14.20
2023-05-09T19:13:50.806Z,14.40
2023-05-09T19:16:18.352Z,14.40
2023-05-09T19:18:45.885Z,14.40
2023-05-09T19:21:14.187Z,14.30
2023-05-09T19:23:41.709Z,14.40
2023-05-09T19:26:10.047Z,14.30
2023-05-09T19:28:37.571Z,14.30
2023-05-09T19:31:05.119Z,14.30
2023-05-09T19:33:32.927Z,14.30
2023-05-09T19:36:00.452Z,14.20
2023-05-09T19:38:27.998Z,14.20
2023-05-09T19:40:57.216Z,14.20
2023-05-09T19:43:24.744Z,14.20
2023-05-09T19:45:53.113Z,14.10
2023-05-09T19:48:21.389Z,14.10
2023-05-09T19:50:48.926Z,14.10
2023-05-09T19:53:16.486Z,14.10
2023-05-09T19:55:44.023Z,14.10
2023-05-09T19:58:11.583Z,14.30
2023-05-09T20:00:39.853Z,14.30
2023-05-09T20:03:07.532Z,14.30
2023-05-09T20:05:34.965Z,14.30
2023-05-09T20:08:02.502Z,14.20
2023-05-09T20:10:30.868Z,14.20
2023-05-09T20:12:58.444Z,14.20
2023-05-09T20:15:25.926Z,14.20
2023-05-09T20:17:53.877Z,14.10
2023-05-09T20:20:21.339Z,14.10
2023-05-09T20:22:48.860Z,14.30
2023-05-09T20:25:16.422Z,14.30
2023-05-09T20:27:44.000Z,14.30
2023-05-09T20:30:11.704Z,14.20
2023-05-09T20:32:39.350Z,14.40
2023-05-09T20:35:06.878Z,14.40
2023-05-09T20:37:35.181Z,14.50
2023-05-09T20:40:02.764Z,14.50
2023-05-09T20:42:30.287Z,14.40
2023-05-09T20:44:57.812Z,14.40
2023-05-09T20:47:25.455Z,14.30
2023-05-09T20:49:52.898Z,14.30
2023-05-09T20:52:20.432Z,14.50
2023-05-09T20:54:48.009Z,14.40
2023-05-09T20:57:15.521Z,14.40
2023-05-09T20:59:43.805Z,14.20
2023-05-09T21:02:12.170Z,14.20
2023-05-09T21:04:39.663Z,14.20
2023-05-09T21:07:07.223Z,14.20
2023-05-09T21:09:34.788Z,14.40
2023-05-09T21:12:02.314Z,14.30
2023-05-09T21:14:30.620Z,14.20
2023-05-09T21:17:00.660Z,14.20
2023-05-09T21:19:28.919Z,14.10
2023-05-09T21:21:56.440Z,14.10
2023-05-09T21:24:24.789Z,14.30
2023-05-09T21:26:52.331Z,14.30
2023-05-09T21:29:19.889Z,14.30
2023-05-09T21:31:47.494Z,14.20
2023-05-09T21:34:15.786Z,14.30
2023-05-09T21:36:43.314Z,14.30
2023-05-09T21:39:10.899Z,14.30
2023-05-09T21:41:39.178Z,14.20
2023-05-09T21:44:07.745Z,14.10
2023-05-09T21:46:36.275Z,14.10
2023-05-09T21:49:04.444Z,14.10
2023-05-09T21:51:31.970Z,14.10
2023-05-09T21:53:59.548Z,14.10
2023-05-09T21:56:27.081Z,14.10
2023-05-09T21:58:55.387Z,14.00
2023-05-09T22:01:23.014Z,14.10
2023-05-09T22:03:50.583Z,14.00
2023-05-09T22:06:18.790Z,14.00
2023-05-09T22:08:46.348Z,14.00
2023-05-09T22:11:14.908Z,14.00
2023-05-09T22:13:42.166Z,14.00
2023-05-09T22:16:09.865Z,14.00
2023-05-09T22:18:37.277Z,14.00
2023-05-09T22:21:04.798Z,14.00
2023-05-09T22:23:32.365Z,14.00
2023-05-09T22:25:59.914Z,14.00
2023-05-09T22:28:27.451Z,14.00
2023-05-09T22:30:55.030Z,14.00
2023-05-09T22:33:22.542Z,14.00
2023-05-09T22:35:50.086Z,14.00
2023-05-09T22:38:17.662Z,14.20
2023-05-09T22:40:45.201Z,14.20
2023-05-09T22:43:13.494Z,14.10
2023-05-09T22:45:41.109Z,14.10
2023-05-09T22:48:08.638Z,14.10
2023-05-09T22:50:36.136Z,14.10
2023-05-09T22:53:03.709Z,14.10
2023-05-09T22:55:32.011Z,14.00
2023-05-09T22:58:00.283Z,14.00
2023-05-09T23:00:27.857Z,14.00
2023-05-09T23:02:55.474Z,14.00
2023-05-09T23:05:23.684Z,14.00
2023-05-09T23:07:51.252Z,13.90
2023-05-09T23:10:18.936Z,14.00
2023-05-09T23:12:46.347Z,14.00
2023-05-09T23:15:14.654Z,13.90
2023-05-09T23:17:42.208Z,13.90
2023-05-09T23:20:09.777Z,13.90
2023-05-09T23:22:37.338Z,13.90
2023-05-09T23:25:04.927Z,13.80
2023-05-09T23:27:32.456Z,13.80
2023-05-09T23:30:00.002Z,13.80
2023-05-09T23:32:27.550Z,14.00
2023-05-09T23:34:55.820Z,13.90
2023-05-09T23:37:23.379Z,13.90
2023-05-09T23:39:50.911Z,13.90
2023-05-09T23:42:19.208Z,13.80
2023-05-09T23:44:47.096Z,13.80
2023-05-09T23:47:14.623Z,13.80
2023-05-09T23:49:42.924Z,13.70
2023-05-09T23:52:10.796Z,13.70
2023-05-09T23:54:38.315Z,13.70
2023-05-09T23:57:06.608Z,13.70
2023-05-09T23:59:34.210Z,13.60
